sensor_id;sensor_type;location;lat;lon;timestamp;pressure;altitude;pressure_sealevel;temperature;humidity
46223;BME280;31943;51.410;7.564;2023-12-20T00:01:03;100105.88;;;7.98;79.81
46223;BME280;31943;51.410;7.564;2023-12-20T00:03:29;100111.09;;;7.98;80.11
46223;BME280;31943;51.410;7.564;2023-12-20T00:05:55;100110.19;;;7.98;80.00
46223;BME280;31943;51.410;7.564;2023-12-20T00:08:22;100105.84;;;7.97;79.89
46223;BME280;31943;51.410;7.564;2023-12-20T00:10:47;100109.28;;;7.96;80.08
46223;BME280;31943;51.410;7.564;2023-12-20T00:13:13;100116.28;;;7.98;80.25
46223;BME280;31943;51.410;7.564;2023-12-20T00:15:40;100118.84;;;7.97;79.84
46223;BME280;31943;51.410;7.564;2023-12-20T00:18:06;100123.09;;;7.93;79.95
46223;BME280;31943;51.410;7.564;2023-12-20T00:20:31;100109.16;;;7.88;79.43
46223;BME280;31943;51.410;7.564;2023-12-20T00:22:57;100110.78;;;7.83;79.42
46223;BME280;31943;51.410;7.564;2023-12-20T00:25:25;100115.00;;;7.78;79.41
46223;BME280;31943;51.410;7.564;2023-12-20T00:27:50;100108.88;;;7.72;79.50
46223;BME280;31943;51.410;7.564;2023-12-20T00:30:16;100102.81;;;7.73;79.30
46223;BME280;31943;51.410;7.564;2023-12-20T00:32:42;100104.53;;;7.73;79.06
46223;BME280;31943;51.410;7.564;2023-12-20T00:35:08;100106.25;;;7.71;79.17
46223;BME280;31943;51.410;7.564;2023-12-20T00:37:34;100107.97;;;7.72;79.51
46223;BME280;31943;51.410;7.564;2023-12-20T00:40:00;100109.78;;;7.76;79.04
46223;BME280;31943;51.410;7.564;2023-12-20T00:42:27;100117.53;;;7.73;79.00
46223;BME280;31943;51.410;7.564;2023-12-20T00:44:53;100129.66;;;7.74;79.20
46223;BME280;31943;51.410;7.564;2023-12-20T00:47:19;100121.03;;;7.75;79.25
46223;BME280;31943;51.410;7.564;2023-12-20T00:49:44;100118.50;;;7.80;78.99
46223;BME280;31943;51.410;7.564;2023-12-20T00:52:10;100115.84;;;7.75;78.85
46223;BME280;31943;51.410;7.564;2023-12-20T00:54:35;100121.94;;;7.77;79.03
46223;BME280;31943;51.410;7.564;2023-12-20T00:57:01;100122.72;;;7.73;78.86
46223;BME280;31943;51.410;7.564;2023-12-20T00:59:30;100138.28;;;7.71;78.88
46223;BME280;31943;51.410;7.564;2023-12-20T01:01:57;100130.53;;;7.73;78.74
46223;BME280;31943;51.410;7.564;2023-12-20T01:04:24;100128.75;;;7.70;78.73
46223;BME280;31943;51.410;7.564;2023-12-20T01:06:49;100135.72;;;7.73;78.85
46223;BME280;31943;51.410;7.564;2023-12-20T01:09:15;100142.63;;;7.72;78.37
46223;BME280;31943;51.410;7.564;2023-12-20T01:11:41;100143.50;;;7.73;78.10
46223;BME280;31943;51.410;7.564;2023-12-20T01:14:07;100128.75;;;7.72;78.36
46223;BME280;31943;51.410;7.564;2023-12-20T01:16:34;100146.84;;;7.67;78.35
46223;BME280;31943;51.410;7.564;2023-12-20T01:19:00;100161.56;;;7.67;77.88
46223;BME280;31943;51.410;7.564;2023-12-20T01:21:25;100157.16;;;7.64;77.98
46223;BME280;31943;51.410;7.564;2023-12-20T01:23:51;100160.66;;;7.65;77.01
46223;BME280;31943;51.410;7.564;2023-12-20T01:26:17;100158.84;;;7.61;75.46
46223;BME280;31943;51.410;7.564;2023-12-20T01:28:42;100165.63;;;7.54;75.39
46223;BME280;31943;51.410;7.564;2023-12-20T01:31:08;100167.34;;;7.53;74.50
46223;BME280;31943;51.410;7.564;2023-12-20T01:33:35;100169.00;;;7.50;74.75
46223;BME280;31943;51.410;7.564;2023-12-20T01:36:01;100172.41;;;7.47;74.90
46223;BME280;31943;51.410;7.564;2023-12-20T01:38:27;100168.09;;;7.48;75.06
46223;BME280;31943;51.410;7.564;2023-12-20T01:40:53;100167.09;;;7.41;74.98
46223;BME280;31943;51.410;7.564;2023-12-20T01:43:19;100174.84;;;7.40;75.31
46223;BME280;31943;51.410;7.564;2023-12-20T01:45:46;100171.38;;;7.39;75.93
46223;BME280;31943;51.410;7.564;2023-12-20T01:48:12;100174.84;;;7.40;76.00
46223;BME280;31943;51.410;7.564;2023-12-20T01:50:39;100172.28;;;7.43;76.36
46223;BME280;31943;51.410;7.564;2023-12-20T01:53:07;100170.63;;;7.45;75.93
46223;BME280;31943;51.410;7.564;2023-12-20T01:55:36;100176.63;;;7.42;75.72
46223;BME280;31943;51.410;7.564;2023-12-20T01:58:04;100164.47;;;7.40;75.94
46223;BME280;31943;51.410;7.564;2023-12-20T02:00:30;100161.91;;;7.41;75.58
46223;BME280;31943;51.410;7.564;2023-12-20T02:02:59;100160.09;;;7.39;75.61
46223;BME280;31943;51.410;7.564;2023-12-20T02:05:25;100166.03;;;7.33;75.79
46223;BME280;31943;51.410;7.564;2023-12-20T02:07:54;100164.38;;;7.37;74.83
46223;BME280;31943;51.410;7.564;2023-12-20T02:10:20;100175.75;;;7.42;74.64
46223;BME280;31943;51.410;7.564;2023-12-20T02:12:45;100174.75;;;7.37;74.05
46223;BME280;31943;51.410;7.564;2023-12-20T02:15:11;100179.78;;;7.29;74.06
46223;BME280;31943;51.410;7.564;2023-12-20T02:17:38;100170.16;;;7.23;73.81
46223;BME280;31943;51.410;7.564;2023-12-20T02:20:06;100169.31;;;7.24;72.74
46223;BME280;31943;51.410;7.564;2023-12-20T02:22:34;100162.34;;;7.22;72.89
46223;BME280;31943;51.410;7.564;2023-12-20T02:25:00;100163.00;;;7.13;72.77
46223;BME280;31943;51.410;7.564;2023-12-20T02:27:25;100155.22;;;7.13;72.12
46223;BME280;31943;51.410;7.564;2023-12-20T02:29:52;100162.94;;;7.10;71.35
46223;BME280;31943;51.410;7.564;2023-12-20T02:32:17;100167.22;;;7.09;71.19
46223;BME280;31943;51.410;7.564;2023-12-20T02:34:43;100163.81;;;7.10;70.26
46223;BME280;31943;51.410;7.564;2023-12-20T02:37:09;100170.78;;;7.11;70.50
46223;BME280;31943;51.410;7.564;2023-12-20T02:39:36;100175.00;;;7.08;70.59
46223;BME280;31943;51.410;7.564;2023-12-20T02:42:02;100169.81;;;7.08;70.73
46223;BME280;31943;51.410;7.564;2023-12-20T02:44:27;100166.16;;;7.00;71.30
46223;BME280;31943;51.410;7.564;2023-12-20T02:46:53;100171.31;;;6.98;71.63
46223;BME280;31943;51.410;7.564;2023-12-20T02:49:18;100169.50;;;6.94;71.61
46223;BME280;31943;51.410;7.564;2023-12-20T02:51:44;100166.00;;;6.92;72.04
46223;BME280;31943;51.410;7.564;2023-12-20T02:54:10;100160.72;;;6.89;72.05
46223;BME280;31943;51.410;7.564;2023-12-20T02:56:38;100165.97;;;6.90;72.23
46223;BME280;31943;51.410;7.564;2023-12-20T02:59:04;100155.53;;;6.89;72.62
46223;BME280;31943;51.410;7.564;2023-12-20T03:01:29;100159.72;;;6.84;72.93
46223;BME280;31943;51.410;7.564;2023-12-20T03:03:56;100149.34;;;6.82;73.01
46223;BME280;31943;51.410;7.564;2023-12-20T03:06:22;100160.47;;;6.78;73.71
46223;BME280;31943;51.410;7.564;2023-12-20T03:08:48;100160.53;;;6.81;73.49
46223;BME280;31943;51.410;7.564;2023-12-20T03:11:13;100162.31;;;6.82;73.73
46223;BME280;31943;51.410;7.564;2023-12-20T03:13:40;100152.69;;;6.78;74.29
46223;BME280;31943;51.410;7.564;2023-12-20T03:16:08;100150.13;;;6.80;74.06
46223;BME280;31943;51.410;7.564;2023-12-20T03:18:34;100153.69;;;6.83;74.06
46223;BME280;31943;51.410;7.564;2023-12-20T03:20:59;100150.16;;;6.81;74.23
46223;BME280;31943;51.410;7.564;2023-12-20T03:23:25;100137.19;;;6.81;74.30
46223;BME280;31943;51.410;7.564;2023-12-20T03:25:51;100150.16;;;6.81;74.63
46223;BME280;31943;51.410;7.564;2023-12-20T03:28:16;100150.16;;;6.81;74.93
46223;BME280;31943;51.410;7.564;2023-12-20T03:30:43;100151.94;;;6.82;74.81
46223;BME280;31943;51.410;7.564;2023-12-20T03:33:09;100162.31;;;6.82;74.43
46223;BME280;31943;51.410;7.564;2023-12-20T03:35:34;100163.88;;;6.76;74.83
46223;BME280;31943;51.410;7.564;2023-12-20T03:38:00;100161.22;;;6.74;74.48
46223;BME280;31943;51.410;7.564;2023-12-20T03:40:25;100158.69;;;6.76;74.66
46223;BME280;31943;51.410;7.564;2023-12-20T03:42:51;100156.09;;;6.76;74.48
46223;BME280;31943;51.410;7.564;2023-12-20T03:45:16;100161.22;;;6.74;74.92
46223;BME280;31943;51.410;7.564;2023-12-20T03:47:44;100169.75;;;6.68;74.48
46223;BME280;31943;51.410;7.564;2023-12-20T03:50:09;100170.69;;;6.72;74.02
46223;BME280;31943;51.410;7.564;2023-12-20T03:52:35;100163.72;;;6.69;74.05
46223;BME280;31943;51.410;7.564;2023-12-20T03:55:00;100161.13;;;6.69;74.04
46223;BME280;31943;51.410;7.564;2023-12-20T03:57:26;100168.91;;;6.69;74.11
46223;BME280;31943;51.410;7.564;2023-12-20T03:59:52;100173.13;;;6.66;74.07
46223;BME280;31943;51.410;7.564;2023-12-20T04:02:17;100168.81;;;6.65;74.13
46223;BME280;31943;51.410;7.564;2023-12-20T04:04:44;100168.00;;;6.67;73.76
46223;BME280;31943;51.410;7.564;2023-12-20T04:07:10;100181.78;;;6.65;73.59
46223;BME280;31943;51.410;7.564;2023-12-20T04:09:36;100173.06;;;6.63;73.75
46223;BME280;31943;51.410;7.564;2023-12-20T04:12:01;100171.34;;;6.63;73.22
46223;BME280;31943;51.410;7.564;2023-12-20T04:14:27;100164.50;;;6.65;73.35
46223;BME280;31943;51.410;7.564;2023-12-20T04:16:53;100160.16;;;6.66;73.06
46223;BME280;31943;51.410;7.564;2023-12-20T04:19:19;100167.22;;;6.71;73.05
46223;BME280;31943;51.410;7.564;2023-12-20T04:21:46;100169.91;;;6.75;73.16
46223;BME280;31943;51.410;7.564;2023-12-20T04:24:11;100167.22;;;6.71;73.69
46223;BME280;31943;51.410;7.564;2023-12-20T04:26:37;100164.69;;;6.73;73.34
46223;BME280;31943;51.410;7.564;2023-12-20T04:29:02;100161.22;;;6.74;73.78
46223;BME280;31943;51.410;7.564;2023-12-20T04:31:28;100160.31;;;6.70;73.64
46223;BME280;31943;51.410;7.564;2023-12-20T04:33:53;100166.22;;;6.66;73.67
46223;BME280;31943;51.410;7.564;2023-12-20T04:36:19;100166.16;;;6.63;74.03
46223;BME280;31943;51.410;7.564;2023-12-20T04:38:46;100154.75;;;6.55;73.67
46223;BME280;31943;51.410;7.564;2023-12-20T04:41:12;100161.66;;;6.56;73.70
46223;BME280;31943;51.410;7.564;2023-12-20T04:43:37;100167.59;;;6.52;73.94
46223;BME280;31943;51.410;7.564;2023-12-20T04:46:03;100161.59;;;6.53;73.98
46223;BME280;31943;51.410;7.564;2023-12-20T04:48:28;100154.66;;;6.52;73.83
46223;BME280;31943;51.410;7.564;2023-12-20T04:50:54;100161.66;;;6.56;74.13
46223;BME280;31943;51.410;7.564;2023-12-20T04:53:20;100165.03;;;6.52;74.19
46223;BME280;31943;51.410;7.564;2023-12-20T04:55:47;100162.47;;;6.53;74.15
46223;BME280;31943;51.410;7.564;2023-12-20T04:58:12;100171.94;;;6.51;74.17
46223;BME280;31943;51.410;7.564;2023-12-20T05:00:39;100168.41;;;6.49;74.70
46223;BME280;31943;51.410;7.564;2023-12-20T05:03:04;100171.13;;;6.54;74.59
46223;BME280;31943;51.410;7.564;2023-12-20T05:05:30;100170.34;;;6.58;74.41
46223;BME280;31943;51.410;7.564;2023-12-20T05:07:56;100164.25;;;6.56;74.28
46223;BME280;31943;51.410;7.564;2023-12-20T05:10:22;100161.47;;;6.48;74.33
46223;BME280;31943;51.410;7.564;2023-12-20T05:12:49;100162.38;;;6.50;74.67
46223;BME280;31943;51.410;7.564;2023-12-20T05:15:14;100167.56;;;6.49;74.62
46223;BME280;31943;51.410;7.564;2023-12-20T05:17:40;100164.97;;;6.49;74.27
46223;BME280;31943;51.410;7.564;2023-12-20T05:20:07;100169.34;;;6.51;74.22
46223;BME280;31943;51.410;7.564;2023-12-20T05:22:33;100172.78;;;6.52;74.43
46223;BME280;31943;51.410;7.564;2023-12-20T05:24:58;100167.56;;;6.50;74.53
46223;BME280;31943;51.410;7.564;2023-12-20T05:27:24;100171.00;;;6.49;74.61
46223;BME280;31943;51.410;7.564;2023-12-20T05:29:51;100157.91;;;6.45;74.23
46223;BME280;31943;51.410;7.564;2023-12-20T05:32:16;100168.28;;;6.43;74.14
46223;BME280;31943;51.410;7.564;2023-12-20T05:34:42;100164.06;;;6.48;73.95
46223;BME280;31943;51.410;7.564;2023-12-20T05:37:07;100166.66;;;6.48;73.75
46223;BME280;31943;51.410;7.564;2023-12-20T05:39:33;100167.56;;;6.49;73.82
46223;BME280;31943;51.410;7.564;2023-12-20T05:41:58;100169.34;;;6.51;73.56
46223;BME280;31943;51.410;7.564;2023-12-20T05:44:24;100170.19;;;6.52;73.97
46223;BME280;31943;51.410;7.564;2023-12-20T05:46:51;100164.19;;;6.53;73.76
46223;BME280;31943;51.410;7.564;2023-12-20T05:49:17;100157.25;;;6.52;73.87
46223;BME280;31943;51.410;7.564;2023-12-20T05:51:42;100160.66;;;6.49;74.28
46223;BME280;31943;51.410;7.564;2023-12-20T05:54:11;100167.56;;;6.49;73.95
46223;BME280;31943;51.410;7.564;2023-12-20T05:56:39;100159.72;;;6.47;74.13
46223;BME280;31943;51.410;7.564;2023-12-20T05:59:05;100166.59;;;6.45;74.40
46223;BME280;31943;51.410;7.564;2023-12-20T06:01:31;100170.97;;;6.48;73.92
46223;BME280;31943;51.410;7.564;2023-12-20T06:03:58;100170.97;;;6.48;73.97
46223;BME280;31943;51.410;7.564;2023-12-20T06:06:24;100159.59;;;6.43;74.20
46223;BME280;31943;51.410;7.564;2023-12-20T06:08:49;100155.22;;;6.40;74.33
46223;BME280;31943;51.410;7.564;2023-12-20T06:11:15;100155.16;;;6.37;74.21
46223;BME280;31943;51.410;7.564;2023-12-20T06:13:41;100154.34;;;6.40;74.30
46223;BME280;31943;51.410;7.564;2023-12-20T06:16:06;100150.84;;;6.38;73.97
46223;BME280;31943;51.410;7.564;2023-12-20T06:18:32;100157.00;;;6.41;74.16
46223;BME280;31943;51.410;7.564;2023-12-20T06:21:00;100163.88;;;6.41;74.25
46223;BME280;31943;51.410;7.564;2023-12-20T06:23:25;100156.06;;;6.39;74.32
46223;BME280;31943;51.410;7.564;2023-12-20T06:25:51;100150.94;;;6.42;74.12
46223;BME280;31943;51.410;7.564;2023-12-20T06:28:17;100155.25;;;6.42;74.07
46223;BME280;31943;51.410;7.564;2023-12-20T06:30:43;100152.72;;;6.43;74.17
46223;BME280;31943;51.410;7.564;2023-12-20T06:33:09;100150.03;;;6.40;74.14
46223;BME280;31943;51.410;7.564;2023-12-20T06:35:38;100157.75;;;6.39;73.94
46223;BME280;31943;51.410;7.564;2023-12-20T06:38:06;100161.31;;;6.42;74.10
46223;BME280;31943;51.410;7.564;2023-12-20T06:40:32;100154.44;;;6.44;73.94
46223;BME280;31943;51.410;7.564;2023-12-20T06:43:01;100155.38;;;6.46;74.14
46223;BME280;31943;51.410;7.564;2023-12-20T06:45:29;100162.38;;;6.49;73.71
46223;BME280;31943;51.410;7.564;2023-12-20T06:47:54;100159.72;;;6.47;74.01
46223;BME280;31943;51.410;7.564;2023-12-20T06:50:21;100156.22;;;6.45;74.03
46223;BME280;31943;51.410;7.564;2023-12-20T06:52:47;100151.09;;;6.47;74.01
46223;BME280;31943;51.410;7.564;2023-12-20T06:55:15;100150.31;;;6.51;74.03
46223;BME280;31943;51.410;7.564;2023-12-20T06:57:41;100157.13;;;6.47;74.15
46223;BME280;31943;51.410;7.564;2023-12-20T07:00:08;100161.50;;;6.50;74.07
46223;BME280;31943;51.410;7.564;2023-12-20T07:02:33;100158.88;;;6.48;74.11
46223;BME280;31943;51.410;7.564;2023-12-20T07:04:59;100164.16;;;6.51;74.00
46223;BME280;31943;51.410;7.564;2023-12-20T07:07:25;100154.59;;;6.49;74.17
46223;BME280;31943;51.410;7.564;2023-12-20T07:09:50;100156.22;;;6.45;74.27
46223;BME280;31943;51.410;7.564;2023-12-20T07:12:18;100160.41;;;6.40;74.00
46223;BME280;31943;51.410;7.564;2023-12-20T07:14:44;100157.00;;;6.41;74.08
46223;BME280;31943;51.410;7.564;2023-12-20T07:17:09;100160.44;;;6.42;73.98
46223;BME280;31943;51.410;7.564;2023-12-20T07:19:35;100157.84;;;6.42;73.69
46223;BME280;31943;51.410;7.564;2023-12-20T07:22:01;100160.44;;;6.42;74.05
46223;BME280;31943;51.410;7.564;2023-12-20T07:24:27;100150.94;;;6.42;73.55
46223;BME280;31943;51.410;7.564;2023-12-20T07:26:53;100155.25;;;6.42;73.47
46223;BME280;31943;51.410;7.564;2023-12-20T07:29:20;100154.34;;;6.40;73.59
46223;BME280;31943;51.410;7.564;2023-12-20T07:31:46;100158.78;;;6.44;73.78
46223;BME280;31943;51.410;7.564;2023-12-20T07:34:13;100162.28;;;6.46;73.43
46223;BME280;31943;51.410;7.564;2023-12-20T07:36:39;100165.75;;;6.46;73.64
46223;BME280;31943;51.410;7.564;2023-12-20T07:39:04;100164.06;;;6.48;73.57
46223;BME280;31943;51.410;7.564;2023-12-20T07:41:30;100171.84;;;6.48;73.28
46223;BME280;31943;51.410;7.564;2023-12-20T07:43:56;100178.75;;;6.48;72.92
46223;BME280;31943;51.410;7.564;2023-12-20T07:46:23;100181.38;;;6.49;72.74
46223;BME280;31943;51.410;7.564;2023-12-20T07:48:49;100179.56;;;6.45;72.63
46223;BME280;31943;51.410;7.564;2023-12-20T07:51:15;100165.69;;;6.43;72.34
46223;BME280;31943;51.410;7.564;2023-12-20T07:53:41;100169.19;;;6.45;72.36
46223;BME280;31943;51.410;7.564;2023-12-20T07:56:15;100171.06;;;6.51;71.84
46223;BME280;31943;51.410;7.564;2023-12-20T07:58:41;100172.75;;;6.50;72.08
46223;BME280;31943;51.410;7.564;2023-12-20T08:01:08;100172.84;;;6.53;71.85
46223;BME280;31943;51.410;7.564;2023-12-20T08:03:35;100168.47;;;6.51;71.54
46223;BME280;31943;51.410;7.564;2023-12-20T08:06:01;100172.75;;;6.50;71.66
46223;BME280;31943;51.410;7.564;2023-12-20T08:08:27;100168.41;;;6.49;72.04
46223;BME280;31943;51.410;7.564;2023-12-20T08:10:53;100170.16;;;6.49;72.22
46223;BME280;31943;51.410;7.564;2023-12-20T08:13:19;100171.94;;;6.51;71.76
46223;BME280;31943;51.410;7.564;2023-12-20T08:15:45;100159.03;;;6.54;71.83
46223;BME280;31943;51.410;7.564;2023-12-20T08:18:10;100147.91;;;6.59;72.08
46223;BME280;31943;51.410;7.564;2023-12-20T08:20:37;100167.66;;;6.53;71.86
46223;BME280;31943;51.410;7.564;2023-12-20T08:23:03;100163.34;;;6.54;72.14
46223;BME280;31943;51.410;7.564;2023-12-20T08:25:29;100160.69;;;6.52;71.87
46223;BME280;31943;51.410;7.564;2023-12-20T08:27:55;100165.16;;;6.57;72.12
46223;BME280;31943;51.410;7.564;2023-12-20T08:30:20;100165.16;;;6.57;71.72
46223;BME280;31943;51.410;7.564;2023-12-20T08:32:46;100167.75;;;6.58;72.04
46223;BME280;31943;51.410;7.564;2023-12-20T08:35:12;100166.94;;;6.59;71.68
46223;BME280;31943;51.410;7.564;2023-12-20T08:37:40;100165.16;;;6.58;71.97
46223;BME280;31943;51.410;7.564;2023-12-20T08:40:07;100163.50;;;6.60;71.98
46223;BME280;31943;51.410;7.564;2023-12-20T08:42:32;100162.63;;;6.60;72.31
46223;BME280;31943;51.410;7.564;2023-12-20T08:44:58;100170.44;;;6.61;72.01
46223;BME280;31943;51.410;7.564;2023-12-20T08:47:24;100165.31;;;6.63;72.47
46223;BME280;31943;51.410;7.564;2023-12-20T08:49:49;100166.22;;;6.65;72.12
46223;BME280;31943;51.410;7.564;2023-12-20T08:52:15;100166.22;;;6.66;72.19
46223;BME280;31943;51.410;7.564;2023-12-20T08:54:43;100161.03;;;6.66;72.07
46223;BME280;31943;51.410;7.564;2023-12-20T08:57:08;100173.09;;;6.64;72.20
46223;BME280;31943;51.410;7.564;2023-12-20T08:59:34;100167.03;;;6.64;72.42
46223;BME280;31943;51.410;7.564;2023-12-20T09:02:00;100155.84;;;6.66;72.35
46223;BME280;31943;51.410;7.564;2023-12-20T09:04:26;100158.53;;;6.69;71.99
46223;BME280;31943;51.410;7.564;2023-12-20T09:06:51;100166.41;;;6.72;72.38
46223;BME280;31943;51.410;7.564;2023-12-20T09:09:17;100164.63;;;6.71;71.84
46223;BME280;31943;51.410;7.564;2023-12-20T09:11:45;100158.63;;;6.72;71.77
46223;BME280;31943;51.410;7.564;2023-12-20T09:14:10;100162.91;;;6.70;71.86
46223;BME280;31943;51.410;7.564;2023-12-20T09:16:36;100157.75;;;6.73;72.04
46223;BME280;31943;51.410;7.564;2023-12-20T09:19:02;100159.53;;;6.76;71.98
46223;BME280;31943;51.410;7.564;2023-12-20T09:21:27;100157.81;;;6.75;71.88
46223;BME280;31943;51.410;7.564;2023-12-20T09:23:53;100155.16;;;6.73;72.04
46223;BME280;31943;51.410;7.564;2023-12-20T09:26:19;100162.91;;;6.72;72.05
46223;BME280;31943;51.410;7.564;2023-12-20T09:28:46;100165.50;;;6.72;71.97
46223;BME280;31943;51.410;7.564;2023-12-20T09:31:12;100156.84;;;6.71;71.93
46223;BME280;31943;51.410;7.564;2023-12-20T09:33:37;100135.34;;;6.76;72.04
46223;BME280;31943;51.410;7.564;2023-12-20T09:36:03;100138.84;;;6.78;71.66
46223;BME280;31943;51.410;7.564;2023-12-20T09:38:29;100134.53;;;6.78;71.57
46223;BME280;31943;51.410;7.564;2023-12-20T09:40:55;100143.16;;;6.77;71.50
46223;BME280;31943;51.410;7.564;2023-12-20T09:43:24;100138.78;;;6.75;71.78
46223;BME280;31943;51.410;7.564;2023-12-20T09:45:53;100142.34;;;6.80;71.29
46223;BME280;31943;51.410;7.564;2023-12-20T09:48:19;100140.59;;;6.79;71.81
46223;BME280;31943;51.410;7.564;2023-12-20T09:50:45;100139.78;;;6.81;71.76
46223;BME280;31943;51.410;7.564;2023-12-20T09:53:15;100132.88;;;6.82;71.65
46223;BME280;31943;51.410;7.564;2023-12-20T09:55:41;100145.06;;;6.84;71.42
46223;BME280;31943;51.410;7.564;2023-12-20T09:58:07;100143.34;;;6.85;71.23
46223;BME280;31943;51.410;7.564;2023-12-20T10:00:33;100145.84;;;6.82;71.33
46223;BME280;31943;51.410;7.564;2023-12-20T10:03:00;100136.25;;;6.78;71.63
46223;BME280;31943;51.410;7.564;2023-12-20T10:05:27;100144.16;;;6.82;71.58
46223;BME280;31943;51.410;7.564;2023-12-20T10:07:54;100135.47;;;6.82;71.19
46223;BME280;31943;51.410;7.564;2023-12-20T10:10:23;100134.66;;;6.83;71.18
46223;BME280;31943;51.410;7.564;2023-12-20T10:13:01;100132.97;;;6.85;71.26
46223;BME280;31943;51.410;7.564;2023-12-20T10:15:27;100133.97;;;6.90;71.41
46223;BME280;31943;51.410;7.564;2023-12-20T10:17:53;100134.00;;;6.93;70.98
46223;BME280;31943;51.410;7.564;2023-12-20T10:20:20;100140.19;;;7.00;70.90
46223;BME280;31943;51.410;7.564;2023-12-20T10:22:46;100126.31;;;6.98;71.11
46223;BME280;31943;51.410;7.564;2023-12-20T10:25:13;100127.19;;;6.97;70.88
46223;BME280;31943;51.410;7.564;2023-12-20T10:27:39;100121.94;;;6.95;70.81
46223;BME280;31943;51.410;7.564;2023-12-20T10:30:05;100113.44;;;7.01;71.01
46223;BME280;31943;51.410;7.564;2023-12-20T10:32:32;100116.03;;;7.01;70.80
46223;BME280;31943;51.410;7.564;2023-12-20T10:34:58;100110.00;;;7.02;70.89
46223;BME280;31943;51.410;7.564;2023-12-20T10:37:26;100101.28;;;6.98;70.66
46223;BME280;31943;51.410;7.564;2023-12-20T10:39:53;100092.69;;;7.01;70.37
46223;BME280;31943;51.410;7.564;2023-12-20T10:42:20;100101.38;;;7.03;70.85
46223;BME280;31943;51.410;7.564;2023-12-20T10:44:46;100100.47;;;7.01;70.97
46223;BME280;31943;51.410;7.564;2023-12-20T10:47:13;100105.66;;;7.01;70.97
46223;BME280;31943;51.410;7.564;2023-12-20T10:49:42;100122.94;;;7.00;71.16
46223;BME280;31943;51.410;7.564;2023-12-20T10:52:09;100097.00;;;7.00;70.95
46223;BME280;31943;51.410;7.564;2023-12-20T10:54:39;100099.50;;;6.97;70.95
46223;BME280;31943;51.410;7.564;2023-12-20T10:57:06;100103.84;;;6.97;70.92
46223;BME280;31943;51.410;7.564;2023-12-20T10:59:33;100101.16;;;6.92;71.26
46223;BME280;31943;51.410;7.564;2023-12-20T11:02:03;100092.59;;;6.96;71.14
46223;BME280;31943;51.410;7.564;2023-12-20T11:04:33;100103.94;;;7.01;71.39
46223;BME280;31943;51.410;7.564;2023-12-20T11:07:08;100102.19;;;7.00;71.43
46223;BME280;31943;51.410;7.564;2023-12-20T11:09:46;100102.06;;;6.96;71.28
46223;BME280;31943;51.410;7.564;2023-12-20T11:12:17;100092.59;;;6.98;71.30
46223;BME280;31943;51.410;7.564;2023-12-20T11:14:47;100105.69;;;7.02;71.45
46223;BME280;31943;51.410;7.564;2023-12-20T11:17:14;100100.50;;;7.02;71.63
46223;BME280;31943;51.410;7.564;2023-12-20T11:20:05;100094.38;;;6.99;71.49
46223;BME280;31943;51.410;7.564;2023-12-20T11:22:32;100105.44;;;6.91;72.13
46223;BME280;31943;51.410;7.564;2023-12-20T11:25:04;100107.97;;;6.88;72.29
46223;BME280;31943;51.410;7.564;2023-12-20T11:27:30;100098.38;;;6.84;72.84
46223;BME280;31943;51.410;7.564;2023-12-20T11:29:57;100099.34;;;6.89;72.55
46223;BME280;31943;51.410;7.564;2023-12-20T11:32:28;100094.06;;;6.85;72.94
46223;BME280;31943;51.410;7.564;2023-12-20T11:34:55;100103.63;;;6.87;72.77
46223;BME280;31943;51.410;7.564;2023-12-20T11:37:25;100093.31;;;6.90;72.60
46223;BME280;31943;51.410;7.564;2023-12-20T11:39:54;100091.56;;;6.89;72.70
46223;BME280;31943;51.410;7.564;2023-12-20T11:42:22;100084.72;;;6.93;72.49
46223;BME280;31943;51.410;7.564;2023-12-20T11:44:47;100077.84;;;6.95;72.61
46223;BME280;31943;51.410;7.564;2023-12-20T11:47:13;100081.31;;;6.96;72.69
46223;BME280;31943;51.410;7.564;2023-12-20T11:49:39;100087.41;;;6.96;72.91
46223;BME280;31943;51.410;7.564;2023-12-20T11:52:05;100082.22;;;6.96;72.79
46223;BME280;31943;51.410;7.564;2023-12-20T11:54:30;100088.28;;;6.97;72.72
46223;BME280;31943;51.410;7.564;2023-12-20T11:56:56;100086.63;;;7.00;73.10
46223;BME280;31943;51.410;7.564;2023-12-20T11:59:24;100090.16;;;7.04;73.09
46223;BME280;31943;51.410;7.564;2023-12-20T12:01:50;100078.03;;;7.03;72.71
46223;BME280;31943;51.410;7.564;2023-12-20T12:04:16;100071.16;;;7.05;73.48
46223;BME280;31943;51.410;7.564;2023-12-20T12:06:42;100071.16;;;7.05;72.89
46223;BME280;31943;51.410;7.564;2023-12-20T12:09:08;100067.66;;;7.03;73.26
46223;BME280;31943;51.410;7.564;2023-12-20T12:11:33;100077.97;;;7.01;73.37
46223;BME280;31943;51.410;7.564;2023-12-20T12:13:59;100067.56;;;7.00;73.31
46223;BME280;31943;51.410;7.564;2023-12-20T12:16:27;100060.72;;;7.02;73.12
46223;BME280;31943;51.410;7.564;2023-12-20T12:18:56;100048.63;;;7.02;73.77
46223;BME280;31943;51.410;7.564;2023-12-20T12:21:22;100052.97;;;7.05;73.62
46223;BME280;31943;51.410;7.564;2023-12-20T12:23:47;100041.84;;;7.10;73.79
46223;BME280;31943;51.410;7.564;2023-12-20T12:26:14;100044.38;;;7.07;74.06
46223;BME280;31943;51.410;7.564;2023-12-20T12:28:40;100049.34;;;6.97;73.86
46223;BME280;31943;51.410;7.564;2023-12-20T12:31:06;100049.41;;;6.98;74.16
46223;BME280;31943;51.410;7.564;2023-12-20T12:33:35;100057.09;;;6.95;74.58
46223;BME280;31943;51.410;7.564;2023-12-20T12:36:00;100052.72;;;6.92;74.58
46223;BME280;31943;51.410;7.564;2023-12-20T12:38:26;100044.00;;;6.89;74.77
46223;BME280;31943;51.410;7.564;2023-12-20T12:40:54;100038.84;;;6.90;74.96
46223;BME280;31943;51.410;7.564;2023-12-20T12:43:19;100038.00;;;6.90;75.26
46223;BME280;31943;51.410;7.564;2023-12-20T12:45:45;100037.03;;;6.86;75.12
46223;BME280;31943;51.410;7.564;2023-12-20T12:48:11;100033.53;;;6.86;75.62
46223;BME280;31943;51.410;7.564;2023-12-20T12:50:38;100028.34;;;6.86;75.44
46223;BME280;31943;51.410;7.564;2023-12-20T12:53:04;100024.00;;;6.83;75.81
46223;BME280;31943;51.410;7.564;2023-12-20T12:55:29;100036.09;;;6.83;75.47